sensor_id;sensor_type;location;lat;lon;timestamp;P1;durP1;ratioP1;P2;durP2;ratioP2
45326;SDS011;31062;49.678;24.560;2023-04-24T00:01:33;4.53;;;2.90;;
45326;SDS011;31062;49.678;24.560;2023-04-24T00:04:19;3.63;;;3.28;;
45326;SDS011;31062;49.678;24.560;2023-04-24T00:07:05;3.72;;;3.33;;
45326;SDS011;31062;49.678;24.560;2023-04-24T00:09:51;5.00;;;3.30;;
45326;SDS011;31062;49.678;24.560;2023-04-24T00:12:37;3.88;;;3.55;;
45326;SDS011;31062;49.678;24.560;2023-04-24T00:15:23;5.40;;;3.22;;
45326;SDS011;31062;49.678;24.560;2023-04-24T00:18:08;5.93;;;3.85;;
45326;SDS011;31062;49.678;24.560;2023-04-24T00:20:53;3.70;;;2.67;;
45326;SDS011;31062;49.678;24.560;2023-04-24T00:23:39;3.38;;;2.80;;
45326;SDS011;31062;49.678;24.560;2023-04-24T00:26:24;3.65;;;2.85;;
45326;SDS011;31062;49.678;24.560;2023-04-24T00:29:10;4.03;;;2.60;;
45326;SDS011;31062;49.678;24.560;2023-04-24T00:31:56;2.67;;;2.47;;
45326;SDS011;31062;49.678;24.560;2023-04-24T00:34:41;2.83;;;2.63;;
45326;SDS011;31062;49.678;24.560;2023-04-24T00:37:27;3.97;;;2.67;;
45326;SDS011;31062;49.678;24.560;2023-04-24T00:40:12;3.13;;;2.83;;
45326;SDS011;31062;49.678;24.560;2023-04-24T00:42:57;4.40;;;3.33;;
45326;SDS011;31062;49.678;24.560;2023-04-24T00:45:43;5.18;;;3.20;;
45326;SDS011;31062;49.678;24.560;2023-04-24T00:48:28;5.38;;;2.88;;
45326;SDS011;31062;49.678;24.560;2023-04-24T00:51:15;6.75;;;3.38;;
45326;SDS011;31062;49.678;24.560;2023-04-24T00:54:01;4.05;;;3.25;;
45326;SDS011;31062;49.678;24.560;2023-04-24T00:56:46;5.95;;;3.17;;
45326;SDS011;31062;49.678;24.560;2023-04-24T00:59:32;3.45;;;3.15;;
45326;SDS011;31062;49.678;24.560;2023-04-24T01:02:18;5.70;;;3.17;;
45326;SDS011;31062;49.678;24.560;2023-04-24T01:05:03;4.03;;;2.90;;
45326;SDS011;31062;49.678;24.560;2023-04-24T01:07:50;3.10;;;2.80;;
45326;SDS011;31062;49.678;24.560;2023-04-24T01:10:36;4.25;;;3.17;;
45326;SDS011;31062;49.678;24.560;2023-04-24T01:13:22;4.45;;;2.70;;
45326;SDS011;31062;49.678;24.560;2023-04-24T01:16:09;3.47;;;2.97;;
45326;SDS011;31062;49.678;24.560;2023-04-24T01:18:54;3.60;;;3.03;;
45326;SDS011;31062;49.678;24.560;2023-04-24T01:21:40;2.75;;;2.30;;
45326;SDS011;31062;49.678;24.560;2023-04-24T01:24:28;12.82;;;3.20;;
45326;SDS011;31062;49.678;24.560;2023-04-24T01:27:15;3.25;;;2.90;;
45326;SDS011;31062;49.678;24.560;2023-04-24T01:30:03;5.40;;;2.90;;
45326;SDS011;31062;49.678;24.560;2023-04-24T01:32:49;4.93;;;3.35;;
45326;SDS011;31062;49.678;24.560;2023-04-24T01:35:37;3.78;;;3.05;;
45326;SDS011;31062;49.678;24.560;2023-04-24T01:38:23;3.75;;;2.53;;
45326;SDS011;31062;49.678;24.560;2023-04-24T01:41:08;8.63;;;3.00;;
45326;SDS011;31062;49.678;24.560;2023-04-24T01:43:54;4.28;;;3.03;;
45326;SDS011;31062;49.678;24.560;2023-04-24T01:46:40;3.35;;;3.00;;
45326;SDS011;31062;49.678;24.560;2023-04-24T01:49:26;3.72;;;2.85;;
45326;SDS011;31062;49.678;24.560;2023-04-24T01:52:12;3.40;;;3.10;;
45326;SDS011;31062;49.678;24.560;2023-04-24T01:54:59;3.65;;;3.03;;
45326;SDS011;31062;49.678;24.560;2023-04-24T01:57:45;4.50;;;2.60;;
45326;SDS011;31062;49.678;24.560;2023-04-24T02:00:30;6.95;;;2.88;;
45326;SDS011;31062;49.678;24.560;2023-04-24T02:03:16;3.75;;;2.80;;
45326;SDS011;31062;49.678;24.560;2023-04-24T02:06:02;3.80;;;3.03;;
45326;SDS011;31062;49.678;24.560;2023-04-24T02:08:49;3.33;;;3.03;;
45326;SDS011;31062;49.678;24.560;2023-04-24T02:11:34;4.82;;;3.28;;
45326;SDS011;31062;49.678;24.560;2023-04-24T02:14:19;3.63;;;3.03;;
45326;SDS011;31062;49.678;24.560;2023-04-24T02:17:05;6.07;;;3.17;;
45326;SDS011;31062;49.678;24.560;2023-04-24T02:19:54;3.53;;;2.80;;
45326;SDS011;31062;49.678;24.560;2023-04-24T02:22:39;3.13;;;2.83;;
45326;SDS011;31062;49.678;24.560;2023-04-24T02:25:25;3.00;;;2.80;;
45326;SDS011;31062;49.678;24.560;2023-04-24T02:28:13;3.15;;;2.85;;
45326;SDS011;31062;49.678;24.560;2023-04-24T02:30:58;5.30;;;2.70;;
45326;SDS011;31062;49.678;24.560;2023-04-24T02:33:45;3.95;;;2.80;;
45326;SDS011;31062;49.678;24.560;2023-04-24T02:36:30;3.35;;;2.78;;
45326;SDS011;31062;49.678;24.560;2023-04-24T02:39:16;4.35;;;2.58;;
45326;SDS011;31062;49.678;24.560;2023-04-24T02:42:02;3.25;;;2.95;;
45326;SDS011;31062;49.678;24.560;2023-04-24T02:44:48;4.25;;;3.30;;
45326;SDS011;31062;49.678;24.560;2023-04-24T02:47:33;2.90;;;2.50;;
45326;SDS011;31062;49.678;24.560;2023-04-24T02:50:19;3.70;;;2.92;;
45326;SDS011;31062;49.678;24.560;2023-04-24T02:53:05;4.63;;;2.80;;
45326;SDS011;31062;49.678;24.560;2023-04-24T02:55:51;4.03;;;3.50;;
45326;SDS011;31062;49.678;24.560;2023-04-24T02:58:36;3.72;;;2.70;;
45326;SDS011;31062;49.678;24.560;2023-04-24T03:01:22;5.22;;;3.05;;
45326;SDS011;31062;49.678;24.560;2023-04-24T03:04:07;4.80;;;2.92;;
45326;SDS011;31062;49.678;24.560;2023-04-24T03:06:53;4.22;;;3.47;;
45326;SDS011;31062;49.678;24.560;2023-04-24T03:09:40;7.13;;;3.28;;
45326;SDS011;31062;49.678;24.560;2023-04-24T03:12:26;3.70;;;2.60;;
45326;SDS011;31062;49.678;24.560;2023-04-24T03:15:12;5.25;;;2.70;;
45326;SDS011;31062;49.678;24.560;2023-04-24T03:17:58;3.47;;;3.05;;
45326;SDS011;31062;49.678;24.560;2023-04-24T03:20:45;7.97;;;3.42;;
45326;SDS011;31062;49.678;24.560;2023-04-24T03:23:32;4.63;;;3.05;;
45326;SDS011;31062;49.678;24.560;2023-04-24T03:26:17;3.03;;;2.72;;
45326;SDS011;31062;49.678;24.560;2023-04-24T03:29:16;3.75;;;3.38;;
45326;SDS011;31062;49.678;24.560;2023-04-24T03:32:01;4.35;;;3.05;;
45326;SDS011;31062;49.678;24.560;2023-04-24T03:34:48;5.28;;;3.45;;
45326;SDS011;31062;49.678;24.560;2023-04-24T03:37:35;4.13;;;3.10;;
45326;SDS011;31062;49.678;24.560;2023-04-24T03:40:40;10.57;;;3.35;;
45326;SDS011;31062;49.678;24.560;2023-04-24T03:43:45;7.78;;;3.33;;
45326;SDS011;31062;49.678;24.560;2023-04-24T03:46:30;6.75;;;3.30;;
45326;SDS011;31062;49.678;24.560;2023-04-24T03:49:18;4.30;;;2.97;;
45326;SDS011;31062;49.678;24.560;2023-04-24T03:52:05;3.60;;;3.25;;
45326;SDS011;31062;49.678;24.560;2023-04-24T03:54:50;11.13;;;3.55;;
45326;SDS011;31062;49.678;24.560;2023-04-24T03:57:36;13.25;;;3.72;;
45326;SDS011;31062;49.678;24.560;2023-04-24T04:00:31;5.95;;;3.22;;
45326;SDS011;31062;49.678;24.560;2023-04-24T04:03:37;5.05;;;2.92;;
45326;SDS011;31062;49.678;24.560;2023-04-24T04:06:23;4.47;;;3.35;;
45326;SDS011;31062;49.678;24.560;2023-04-24T04:09:11;4.70;;;3.10;;
45326;SDS011;31062;49.678;24.560;2023-04-24T04:11:56;3.30;;;3.00;;
45326;SDS011;31062;49.678;24.560;2023-04-24T04:14:41;3.88;;;3.25;;
45326;SDS011;31062;49.678;24.560;2023-04-24T04:17:27;5.75;;;3.00;;
45326;SDS011;31062;49.678;24.560;2023-04-24T04:20:13;3.88;;;3.40;;
45326;SDS011;31062;49.678;24.560;2023-04-24T04:22:59;8.02;;;3.70;;
45326;SDS011;31062;49.678;24.560;2023-04-24T04:25:57;9.95;;;4.30;;
45326;SDS011;31062;49.678;24.560;2023-04-24T04:28:53;7.55;;;4.55;;
45326;SDS011;31062;49.678;24.560;2023-04-24T04:31:39;5.97;;;3.88;;
45326;SDS011;31062;49.678;24.560;2023-04-24T04:34:28;7.80;;;4.55;;
45326;SDS011;31062;49.678;24.560;2023-04-24T04:37:15;7.43;;;5.38;;
45326;SDS011;31062;49.678;24.560;2023-04-24T04:40:23;11.02;;;7.47;;
45326;SDS011;31062;49.678;24.560;2023-04-24T04:43:15;9.20;;;5.30;;
45326;SDS011;31062;49.678;24.560;2023-04-24T04:46:07;16.10;;;8.60;;
45326;SDS011;31062;49.678;24.560;2023-04-24T04:52:06;30.02;;;6.95;;
45326;SDS011;31062;49.678;24.560;2023-04-24T04:54:52;8.75;;;6.55;;
45326;SDS011;31062;49.678;24.560;2023-04-24T04:57:40;10.90;;;6.50;;
45326;SDS011;31062;49.678;24.560;2023-04-24T05:00:26;9.52;;;5.95;;
45326;SDS011;31062;49.678;24.560;2023-04-24T05:03:12;11.52;;;8.07;;
45326;SDS011;31062;49.678;24.560;2023-04-24T05:06:04;14.90;;;7.53;;
45326;SDS011;31062;49.678;24.560;2023-04-24T05:08:57;11.30;;;6.78;;
45326;SDS011;31062;49.678;24.560;2023-04-24T05:11:51;10.45;;;6.55;;
45326;SDS011;31062;49.678;24.560;2023-04-24T05:14:36;13.30;;;5.47;;
45326;SDS011;31062;49.678;24.560;2023-04-24T05:17:22;4.28;;;3.85;;
45326;SDS011;31062;49.678;24.560;2023-04-24T05:20:10;6.00;;;3.80;;
45326;SDS011;31062;49.678;24.560;2023-04-24T05:22:56;6.68;;;4.20;;
45326;SDS011;31062;49.678;24.560;2023-04-24T05:25:44;5.68;;;3.95;;
45326;SDS011;31062;49.678;24.560;2023-04-24T05:28:30;6.93;;;3.47;;
45326;SDS011;31062;49.678;24.560;2023-04-24T05:31:23;7.55;;;4.03;;
45326;SDS011;31062;49.678;24.560;2023-04-24T05:34:09;12.65;;;4.00;;
45326;SDS011;31062;49.678;24.560;2023-04-24T05:36:59;7.95;;;4.15;;
45326;SDS011;31062;49.678;24.560;2023-04-24T05:39:45;10.60;;;4.65;;
45326;SDS011;31062;49.678;24.560;2023-04-24T05:42:31;7.53;;;4.72;;
45326;SDS011;31062;49.678;24.560;2023-04-24T05:45:17;8.43;;;5.53;;
45326;SDS011;31062;49.678;24.560;2023-04-24T05:48:04;16.05;;;4.95;;
45326;SDS011;31062;49.678;24.560;2023-04-24T05:50:51;4.95;;;3.50;;
45326;SDS011;31062;49.678;24.560;2023-04-24T05:53:38;9.25;;;4.35;;
45326;SDS011;31062;49.678;24.560;2023-04-24T05:56:24;9.57;;;5.28;;
45326;SDS011;31062;49.678;24.560;2023-04-24T05:59:10;8.60;;;3.63;;
45326;SDS011;31062;49.678;24.560;2023-04-24T06:01:56;11.73;;;3.70;;
45326;SDS011;31062;49.678;24.560;2023-04-24T06:04:42;5.95;;;3.58;;
45326;SDS011;31062;49.678;24.560;2023-04-24T06:07:28;7.72;;;3.78;;
45326;SDS011;31062;49.678;24.560;2023-04-24T06:10:14;9.98;;;4.07;;
45326;SDS011;31062;49.678;24.560;2023-04-24T06:13:02;6.20;;;4.03;;
45326;SDS011;31062;49.678;24.560;2023-04-24T06:15:49;10.73;;;4.53;;
45326;SDS011;31062;49.678;24.560;2023-04-24T06:18:39;5.65;;;3.88;;
45326;SDS011;31062;49.678;24.560;2023-04-24T06:21:26;5.18;;;3.75;;
45326;SDS011;31062;49.678;24.560;2023-04-24T06:24:16;7.95;;;4.07;;
45326;SDS011;31062;49.678;24.560;2023-04-24T06:27:02;3.40;;;2.95;;
45326;SDS011;31062;49.678;24.560;2023-04-24T06:29:47;8.32;;;3.72;;
45326;SDS011;31062;49.678;24.560;2023-04-24T06:32:39;7.57;;;3.35;;
45326;SDS011;31062;49.678;24.560;2023-04-24T06:35:25;5.30;;;3.75;;
45326;SDS011;31062;49.678;24.560;2023-04-24T06:38:11;4.80;;;3.50;;
45326;SDS011;31062;49.678;24.560;2023-04-24T06:40:57;5.13;;;3.85;;
45326;SDS011;31062;49.678;24.560;2023-04-24T06:43:43;5.97;;;3.85;;
45326;SDS011;31062;49.678;24.560;2023-04-24T06:46:29;4.53;;;3.08;;
45326;SDS011;31062;49.678;24.560;2023-04-24T06:49:15;3.80;;;3.22;;
45326;SDS011;31062;49.678;24.560;2023-04-24T06:52:01;5.40;;;3.08;;
45326;SDS011;31062;49.678;24.560;2023-04-24T06:54:46;3.60;;;3.30;;
45326;SDS011;31062;49.678;24.560;2023-04-24T06:57:32;5.75;;;3.53;;
45326;SDS011;31062;49.678;24.560;2023-04-24T07:00:18;5.20;;;4.00;;
45326;SDS011;31062;49.678;24.560;2023-04-24T07:03:04;4.70;;;3.53;;
45326;SDS011;31062;49.678;24.560;2023-04-24T07:05:53;4.93;;;3.10;;
45326;SDS011;31062;49.678;24.560;2023-04-24T07:08:39;8.10;;;3.08;;
45326;SDS011;31062;49.678;24.560;2023-04-24T07:11:26;4.05;;;3.15;;
45326;SDS011;31062;49.678;24.560;2023-04-24T07:14:14;14.77;;;4.55;;
45326;SDS011;31062;49.678;24.560;2023-04-24T07:17:00;4.15;;;2.90;;
45326;SDS011;31062;49.678;24.560;2023-04-24T07:19:46;3.95;;;3.42;;
45326;SDS011;31062;49.678;24.560;2023-04-24T07:22:31;4.25;;;3.25;;
45326;SDS011;31062;49.678;24.560;2023-04-24T07:25:17;4.25;;;3.40;;
45326;SDS011;31062;49.678;24.560;2023-04-24T07:28:02;7.13;;;3.50;;
45326;SDS011;31062;49.678;24.560;2023-04-24T07:30:49;3.10;;;2.85;;
45326;SDS011;31062;49.678;24.560;2023-04-24T07:33:35;4.95;;;3.05;;
45326;SDS011;31062;49.678;24.560;2023-04-24T07:36:21;3.03;;;2.72;;
45326;SDS011;31062;49.678;24.560;2023-04-24T07:39:06;4.03;;;3.35;;
45326;SDS011;31062;49.678;24.560;2023-04-24T07:41:53;4.10;;;3.42;;
45326;SDS011;31062;49.678;24.560;2023-04-24T07:44:38;3.67;;;3.17;;
45326;SDS011;31062;49.678;24.560;2023-04-24T07:47:24;7.85;;;3.70;;
45326;SDS011;31062;49.678;24.560;2023-04-24T07:50:10;8.23;;;2.70;;
45326;SDS011;31062;49.678;24.560;2023-04-24T07:52:55;3.75;;;2.80;;
45326;SDS011;31062;49.678;24.560;2023-04-24T07:55:40;7.07;;;3.00;;
45326;SDS011;31062;49.678;24.560;2023-04-24T07:58:26;3.25;;;2.78;;
45326;SDS011;31062;49.678;24.560;2023-04-24T08:01:12;6.85;;;2.63;;
45326;SDS011;31062;49.678;24.560;2023-04-24T08:03:58;3.78;;;3.00;;
45326;SDS011;31062;49.678;24.560;2023-04-24T08:06:44;3.78;;;2.85;;
45326;SDS011;31062;49.678;24.560;2023-04-24T08:09:30;4.60;;;2.50;;
45326;SDS011;31062;49.678;24.560;2023-04-24T08:12:15;4.65;;;2.80;;
45326;SDS011;31062;49.678;24.560;2023-04-24T08:15:01;3.85;;;2.67;;
45326;SDS011;31062;49.678;24.560;2023-04-24T08:17:47;6.68;;;2.80;;
45326;SDS011;31062;49.678;24.560;2023-04-24T08:20:32;3.83;;;2.70;;
45326;SDS011;31062;49.678;24.560;2023-04-24T08:23:18;5.95;;;3.30;;
45326;SDS011;31062;49.678;24.560;2023-04-24T08:26:04;3.40;;;2.65;;
45326;SDS011;31062;49.678;24.560;2023-04-24T08:28:50;6.70;;;3.28;;
45326;SDS011;31062;49.678;24.560;2023-04-24T08:31:36;3.80;;;2.72;;
45326;SDS011;31062;49.678;24.560;2023-04-24T08:34:21;2.90;;;2.47;;
45326;SDS011;31062;49.678;24.560;2023-04-24T08:37:07;3.35;;;2.55;;
45326;SDS011;31062;49.678;24.560;2023-04-24T08:39:53;5.38;;;3.30;;
45326;SDS011;31062;49.678;24.560;2023-04-24T08:42:39;4.07;;;2.42;;
45326;SDS011;31062;49.678;24.560;2023-04-24T08:45:27;12.52;;;3.20;;
45326;SDS011;31062;49.678;24.560;2023-04-24T08:48:13;3.10;;;2.80;;
45326;SDS011;31062;49.678;24.560;2023-04-24T08:51:11;2.85;;;2.58;;
45326;SDS011;31062;49.678;24.560;2023-04-24T08:53:57;2.50;;;2.22;;
45326;SDS011;31062;49.678;24.560;2023-04-24T08:56:43;9.57;;;2.80;;
45326;SDS011;31062;49.678;24.560;2023-04-24T08:59:30;6.00;;;2.53;;
45326;SDS011;31062;49.678;24.560;2023-04-24T09:02:16;7.47;;;2.80;;
45326;SDS011;31062;49.678;24.560;2023-04-24T09:05:04;2.72;;;2.22;;
45326;SDS011;31062;49.678;24.560;2023-04-24T09:07:54;4.32;;;3.05;;
45326;SDS011;31062;49.678;24.560;2023-04-24T09:10:41;2.85;;;2.35;;
45326;SDS011;31062;49.678;24.560;2023-04-24T09:13:27;3.10;;;2.45;;
45326;SDS011;31062;49.678;24.560;2023-04-24T09:16:13;3.25;;;2.30;;
45326;SDS011;31062;49.678;24.560;2023-04-24T09:18:59;4.28;;;2.22;;
45326;SDS011;31062;49.678;24.560;2023-04-24T09:21:45;3.90;;;2.60;;
45326;SDS011;31062;49.678;24.560;2023-04-24T09:24:31;4.32;;;2.70;;
45326;SDS011;31062;49.678;24.560;2023-04-24T09:27:22;4.25;;;2.33;;
45326;SDS011;31062;49.678;24.560;2023-04-24T09:30:08;9.80;;;2.92;;
45326;SDS011;31062;49.678;24.560;2023-04-24T09:33:10;6.93;;;2.60;;
45326;SDS011;31062;49.678;24.560;2023-04-24T09:35:58;2.47;;;2.28;;
45326;SDS011;31062;49.678;24.560;2023-04-24T09:38:44;4.57;;;2.60;;
45326;SDS011;31062;49.678;24.560;2023-04-24T09:41:31;3.70;;;2.33;;
45326;SDS011;31062;49.678;24.560;2023-04-24T09:44:18;3.03;;;2.00;;
45326;SDS011;31062;49.678;24.560;2023-04-24T09:47:06;3.92;;;2.72;;
45326;SDS011;31062;49.678;24.560;2023-04-24T09:49:57;2.40;;;2.17;;
45326;SDS011;31062;49.678;24.560;2023-04-24T09:52:56;6.32;;;2.53;;
45326;SDS011;31062;49.678;24.560;2023-04-24T09:55:45;2.95;;;2.60;;
45326;SDS011;31062;49.678;24.560;2023-04-24T09:58:34;3.88;;;2.20;;
45326;SDS011;31062;49.678;24.560;2023-04-24T10:01:30;3.05;;;2.30;;
45326;SDS011;31062;49.678;24.560;2023-04-24T10:04:21;2.60;;;2.05;;
45326;SDS011;31062;49.678;24.560;2023-04-24T10:07:09;2.70;;;2.10;;
45326;SDS011;31062;49.678;24.560;2023-04-24T10:09:56;9.15;;;2.95;;
45326;SDS011;31062;49.678;24.560;2023-04-24T10:12:41;4.00;;;2.25;;
45326;SDS011;31062;49.678;24.560;2023-04-24T10:15:28;5.75;;;2.25;;
45326;SDS011;31062;49.678;24.560;2023-04-24T10:18:13;2.50;;;2.30;;
45326;SDS011;31062;49.678;24.560;2023-04-24T10:21:01;2.40;;;2.20;;
45326;SDS011;31062;49.678;24.560;2023-04-24T10:23:48;4.57;;;2.22;;
45326;SDS011;31062;49.678;24.560;2023-04-24T10:26:34;2.78;;;2.10;;
45326;SDS011;31062;49.678;24.560;2023-04-24T10:29:20;4.38;;;2.60;;
45326;SDS011;31062;49.678;24.560;2023-04-24T10:32:07;7.03;;;3.05;;
45326;SDS011;31062;49.678;24.560;2023-04-24T10:34:55;4.32;;;2.85;;
45326;SDS011;31062;49.678;24.560;2023-04-24T10:37:46;6.28;;;2.65;;
45326;SDS011;31062;49.678;24.560;2023-04-24T10:40:51;2.78;;;2.17;;
45326;SDS011;31062;49.678;24.560;2023-04-24T10:46:53;5.53;;;3.50;;
45326;SDS011;31062;49.678;24.560;2023-04-24T10:49:40;8.25;;;2.47;;
45326;SDS011;31062;49.678;24.560;2023-04-24T10:52:43;13.70;;;4.10;;
45326;SDS011;31062;49.678;24.560;2023-04-24T10:55:40;2.35;;;2.15;;
45326;SDS011;31062;49.678;24.560;2023-04-24T10:58:37;2.50;;;2.30;;
45326;SDS011;31062;49.678;24.560;2023-04-24T11:01:30;2.33;;;2.13;;
45326;SDS011;31062;49.678;24.560;2023-04-24T11:04:21;7.28;;;1.75;;
45326;SDS011;31062;49.678;24.560;2023-04-24T11:07:15;3.22;;;2.22;;
45326;SDS011;31062;49.678;24.560;2023-04-24T11:10:01;2.95;;;2.00;;
45326;SDS011;31062;49.678;24.560;2023-04-24T11:12:47;7.20;;;2.35;;
45326;SDS011;31062;49.678;24.560;2023-04-24T11:15:32;3.72;;;1.73;;
45326;SDS011;31062;49.678;24.560;2023-04-24T11:18:17;5.57;;;2.42;;
45326;SDS011;31062;49.678;24.560;2023-04-24T11:21:09;3.38;;;2.40;;
45326;SDS011;31062;49.678;24.560;2023-04-24T11:23:57;3.85;;;2.00;;
45326;SDS011;31062;49.678;24.560;2023-04-24T11:26:43;3.78;;;2.20;;
45326;SDS011;31062;49.678;24.560;2023-04-24T11:30:16;10.25;;;2.67;;
45326;SDS011;31062;49.678;24.560;2023-04-24T11:32:42;3.92;;;2.33;;
45326;SDS011;31062;49.678;24.560;2023-04-24T11:35:28;9.68;;;2.65;;
45326;SDS011;31062;49.678;24.560;2023-04-24T11:38:13;10.82;;;3.10;;
45326;SDS011;31062;49.678;24.560;2023-04-24T11:41:08;7.18;;;4.32;;
45326;SDS011;31062;49.678;24.560;2023-04-24T11:43:55;7.18;;;3.88;;
45326;SDS011;31062;49.678;24.560;2023-04-24T11:46:42;7.43;;;2.60;;
45326;SDS011;31062;49.678;24.560;2023-04-24T11:49:27;3.40;;;2.35;;
45326;SDS011;31062;49.678;24.560;2023-04-24T11:52:15;3.28;;;2.40;;
45326;SDS011;31062;49.678;24.560;2023-04-24T11:55:01;5.40;;;4.05;;
45326;SDS011;31062;49.678;24.560;2023-04-24T11:57:48;6.35;;;2.67;;
45326;SDS011;31062;49.678;24.560;2023-04-24T12:00:35;3.15;;;2.15;;
45326;SDS011;31062;49.678;24.560;2023-04-24T12:03:22;4.57;;;2.42;;
45326;SDS011;31062;49.678;24.560;2023-04-24T12:06:08;10.70;;;2.67;;
45326;SDS011;31062;49.678;24.560;2023-04-24T12:08:55;9.93;;;3.00;;
45326;SDS011;31062;49.678;24.560;2023-04-24T12:11:56;3.97;;;2.40;;
45326;SDS011;31062;49.678;24.560;2023-04-24T12:14:51;4.78;;;2.78;;
45326;SDS011;31062;49.678;24.560;2023-04-24T12:17:41;5.65;;;2.78;;
45326;SDS011;31062;49.678;24.560;2023-04-24T12:20:32;3.88;;;2.65;;
45326;SDS011;31062;49.678;24.560;2023-04-24T12:23:34;7.35;;;2.80;;
45326;SDS011;31062;49.678;24.560;2023-04-24T12:26:23;6.07;;;2.50;;
45326;SDS011;31062;49.678;24.560;2023-04-24T12:29:10;3.53;;;2.70;;
45326;SDS011;31062;49.678;24.560;2023-04-24T12:31:55;7.38;;;2.90;;
45326;SDS011;31062;49.678;24.560;2023-04-24T12:34:41;9.07;;;2.42;;
45326;SDS011;31062;49.678;24.560;2023-04-24T12:37:32;6.10;;;2.72;;
45326;SDS011;31062;49.678;24.560;2023-04-24T12:40:20;4.63;;;2.28;;
45326;SDS011;31062;49.678;24.560;2023-04-24T12:45:59;3.40;;;2.45;;
45326;SDS011;31062;49.678;24.560;2023-04-24T12:48:44;5.88;;;2.80;;
45326;SDS011;31062;49.678;24.560;2023-04-24T12:51:30;3.08;;;2.70;;
45326;SDS011;31062;49.678;24.560;2023-04-24T12:54:15;2.95;;;2.65;;
45326;SDS011;31062;49.678;24.560;2023-04-24T12:57:01;3.85;;;2.05;;
45326;SDS011;31062;49.678;24.560;2023-04-24T12:59:46;2.50;;;2.08;;
45326;SDS011;31062;49.678;24.560;2023-04-24T13:02:31;4.40;;;2.60;;
45326;SDS011;31062;49.678;24.560;2023-04-24T13:05:17;6.75;;;3.17;;
45326;SDS011;31062;49.678;24.560;2023-04-24T13:08:03;3.33;;;1.90;;
45326;SDS011;31062;49.678;24.560;2023-04-24T13:10:48;3.10;;;2.33;;
45326;SDS011;31062;49.678;24.560;2023-04-24T13:13:34;4.30;;;2.55;;
45326;SDS011;31062;49.678;24.560;2023-04-24T13:16:20;4.35;;;1.75;;
45326;SDS011;31062;49.678;24.560;2023-04-24T13:19:05;2.70;;;2.10;;
45326;SDS011;31062;49.678;24.560;2023-04-24T13:21:51;6.38;;;2.50;;
45326;SDS011;31062;49.678;24.560;2023-04-24T13:24:37;3.67;;;2.25;;
45326;SDS011;31062;49.678;24.560;2023-04-24T13:27:25;2.95;;;2.08;;
45326;SDS011;31062;49.678;24.560;2023-04-24T13:30:11;5.03;;;2.40;;
45326;SDS011;31062;49.678;24.560;2023-04-24T13:32:57;2.88;;;1.90;;
45326;SDS011;31062;49.678;24.560;2023-04-24T13:35:43;1.80;;;1.70;;
45326;SDS011;31062;49.678;24.560;2023-04-24T13:38:28;7.85;;;2.00;;
45326;SDS011;31062;49.678;24.560;2023-04-24T13:41:13;3.13;;;2.20;;
45326;SDS011;31062;49.678;24.560;2023-04-24T13:43:59;14.38;;;2.40;;
45326;SDS011;31062;49.678;24.560;2023-04-24T13:46:46;6.38;;;1.90;;
45326;SDS011;31062;49.678;24.560;2023-04-24T13:49:32;4.03;;;2.60;;
45326;SDS011;31062;49.678;24.560;2023-04-24T13:52:18;2.58;;;2.00;;
45326;SDS011;31062;49.678;24.560;2023-04-24T13:55:03;2.65;;;2.15;;
45326;SDS011;31062;49.678;24.560;2023-04-24T13:57:49;2.35;;;1.67;;
45326;SDS011;31062;49.678;24.560;2023-04-24T14:00:35;2.58;;;2.30;;
45326;SDS011;31062;49.678;24.560;2023-04-24T14:03:20;1.73;;;1.63;;
45326;SDS011;31062;49.678;24.560;2023-04-24T14:06:07;6.82;;;2.58;;
45326;SDS011;31062;49.678;24.560;2023-04-24T14:08:53;2.00;;;1.80;;
45326;SDS011;31062;49.678;24.560;2023-04-24T14:11:38;4.72;;;1.63;;
45326;SDS011;31062;49.678;24.560;2023-04-24T14:14:24;4.43;;;2.20;;
45326;SDS011;31062;49.678;24.560;2023-04-24T14:17:14;2.03;;;1.77;;
45326;SDS011;31062;49.678;24.560;2023-04-24T14:20:02;3.85;;;1.95;;
45326;SDS011;31062;49.678;24.560;2023-04-24T14:22:51;1.75;;;1.63;;
45326;SDS011;31062;49.678;24.560;2023-04-24T14:25:38;6.18;;;2.70;;
45326;SDS011;31062;49.678;24.560;2023-04-24T14:28:24;9.00;;;2.50;;
45326;SDS011;31062;49.678;24.560;2023-04-24T14:31:11;3.97;;;2.08;;
45326;SDS011;31062;49.678;24.560;2023-04-24T14:33:57;6.43;;;2.58;;
45326;SDS011;31062;49.678;24.560;2023-04-24T14:36:43;5.60;;;2.50;;
45326;SDS011;31062;49.678;24.560;2023-04-24T14:39:29;5.05;;;2.20;;
45326;SDS011;31062;49.678;24.560;2023-04-24T14:42:15;6.03;;;2.30;;
45326;SDS011;31062;49.678;24.560;2023-04-24T14:45:02;2.90;;;2.13;;
45326;SDS011;31062;49.678;24.560;2023-04-24T14:47:48;7.22;;;1.88;;
45326;SDS011;31062;49.678;24.560;2023-04-24T14:50:33;6.18;;;1.98;;
45326;SDS011;31062;49.678;24.560;2023-04-24T14:53:19;3.83;;;2.13;;
45326;SDS011;31062;49.678;24.560;2023-04-24T14:56:05;6.30;;;2.40;;
45326;SDS011;31062;49.678;24.560;2023-04-24T14:58:51;8.40;;;2.63;;
45326;SDS011;31062;49.678;24.560;2023-04-24T15:01:37;7.32;;;2.95;;
45326;SDS011;31062;49.678;24.560;2023-04-24T15:04:26;7.13;;;2.38;;
45326;SDS011;31062;49.678;24.560;2023-04-24T15:07:12;4.35;;;3.03;;
45326;SDS011;31062;49.678;24.560;2023-04-24T15:09:57;6.70;;;3.17;;
45326;SDS011;31062;49.678;24.560;2023-04-24T15:12:43;10.63;;;3.97;;
45326;SDS011;31062;49.678;24.560;2023-04-24T15:15:29;12.07;;;4.03;;
45326;SDS011;31062;49.678;24.560;2023-04-24T15:18:14;17.25;;;5.00;;
45326;SDS011;31062;49.678;24.560;2023-04-24T15:21:00;9.05;;;4.40;;
45326;SDS011;31062;49.678;24.560;2023-04-24T15:23:46;5.70;;;3.28;;
45326;SDS011;31062;49.678;24.560;2023-04-24T15:26:33;8.77;;;3.38;;
45326;SDS011;31062;49.678;24.560;2023-04-24T15:29:19;8.35;;;2.90;;
45326;SDS011;31062;49.678;24.560;2023-04-24T15:32:04;7.63;;;2.70;;
45326;SDS011;31062;49.678;24.560;2023-04-24T15:34:53;15.20;;;3.05;;
45326;SDS011;31062;49.678;24.560;2023-04-24T15:37:52;8.95;;;2.30;;
45326;SDS011;31062;49.678;24.560;2023-04-24T15:40:37;3.05;;;2.30;;
45326;SDS011;31062;49.678;24.560;2023-04-24T15:43:23;4.97;;;2.60;;
45326;SDS011;31062;49.678;24.560;2023-04-24T15:46:09;7.18;;;2.35;;
45326;SDS011;31062;49.678;24.560;2023-04-24T15:48:55;6.07;;;2.60;;
45326;SDS011;31062;49.678;24.560;2023-04-24T15:51:41;8.45;;;3.03;;
45326;SDS011;31062;49.678;24.560;2023-04-24T15:54:28;8.02;;;2.63;;
45326;SDS011;31062;49.678;24.560;2023-04-24T15:57:14;10.15;;;2.38;;
45326;SDS011;31062;49.678;24.560;2023-04-24T16:00:00;7.03;;;2.78;;
45326;SDS011;31062;49.678;24.560;2023-04-24T16:02:55;11.32;;;4.35;;
45326;SDS011;31062;49.678;24.560;2023-04-24T16:05:54;14.73;;;4.82;;
45326;SDS011;31062;49.678;24.560;2023-04-24T16:08:39;9.93;;;4.18;;
45326;SDS011;31062;49.678;24.560;2023-04-24T16:11:25;6.82;;;3.83;;
45326;SDS011;31062;49.678;24.560;2023-04-24T16:14:10;18.02;;;4.20;;
45326;SDS011;31062;49.678;24.560;2023-04-24T16:16:55;6.03;;;3.47;;
45326;SDS011;31062;49.678;24.560;2023-04-24T16:19:41;7.95;;;3.53;;
45326;SDS011;31062;49.678;24.560;2023-04-24T16:22:27;10.40;;;3.58;;
45326;SDS011;31062;49.678;24.560;2023-04-24T16:25:12;6.88;;;2.60;;
45326;SDS011;31062;49.678;24.560;2023-04-24T16:27:58;5.30;;;2.42;;
45326;SDS011;31062;49.678;24.560;2023-04-24T16:30:46;7.43;;;3.67;;
45326;SDS011;31062;49.678;24.560;2023-04-24T16:33:35;4.88;;;2.95;;
45326;SDS011;31062;49.678;24.560;2023-04-24T16:36:20;12.02;;;3.13;;
45326;SDS011;31062;49.678;24.560;2023-04-24T16:39:06;4.93;;;2.72;;
45326;SDS011;31062;49.678;24.560;2023-04-24T16:41:51;5.85;;;3.40;;